createdAt,value
2022-11-24T12:32:07.889Z,55.7
2022-11-24T12:33:00.601Z,43.5
2022-11-24T12:34:01.481Z,45.7
2022-11-24T12:35:00.657Z,48.8
2022-11-24T12:36:02.634Z,52.2
2022-11-24T12:37:00.637Z,54.3
2022-11-24T12:38:00.625Z,57.2
2022-11-24T12:39:00.606Z,59
2022-11-24T12:40:00.639Z,61.7
2022-11-24T12:41:25.395Z,63.3
2022-11-24T12:42:00.687Z,66
2022-11-24T12:43:01.664Z,66
2022-11-24T12:44:00.650Z,66.6
2022-11-24T12:45:00.625Z,66.6
2022-11-24T12:46:00.705Z,68.5
2022-11-24T12:47:00.719Z,68.5
2022-11-24T12:48:01.663Z,68.5
2022-11-24T12:49:00.647Z,70.6
2022-11-24T12:50:00.648Z,70.6
2022-11-24T12:51:00.763Z,70.6
2022-11-24T12:52:00.687Z,70.6
2022-11-24T12:53:01.640Z,70.6
2022-11-24T12:54:00.664Z,72.7
2022-11-24T12:55:01.708Z,72.7
2022-11-24T12:56:02.649Z,72.7
2022-11-24T12:57:00.704Z,72.7
2022-11-24T12:58:05.046Z,72.7
2022-11-24T12:59:00.626Z,72.7
2022-11-24T13:00:01.660Z,72.7
2022-11-24T13:01:01.660Z,72.7
2022-11-24T13:02:00.842Z,72.7
2022-11-24T13:03:00.759Z,72.7
2022-11-24T13:04:00.689Z,72.7
2022-11-24T13:05:01.638Z,72.7
2022-11-24T13:06:01.657Z,72.7
2022-11-24T13:07:00.690Z,72.7
2022-11-24T13:08:01.639Z,72.7
2022-11-24T13:09:00.647Z,72.7
2022-11-24T13:10:01.659Z,72.7
2022-11-24T13:11:00.634Z,72.7
2022-11-24T13:12:03.508Z,72.7
2022-11-24T13:13:01.655Z,72.7
2022-11-24T13:14:00.675Z,72.7
2022-11-24T13:15:00.673Z,72.7
2022-11-24T13:17:28.546Z,72.7
2022-11-24T13:18:10.432Z,74.8
2022-11-24T13:19:00.686Z,74.8
2022-11-24T13:20:00.647Z,74.8
2022-11-24T13:21:00.678Z,74.8
2022-11-24T13:22:01.647Z,74.6
2022-11-24T13:23:00.633Z,74.6
2022-11-24T13:24:00.676Z,74.6
2022-11-24T13:25:02.667Z,74.6
2022-11-24T13:26:00.733Z,74.6
2022-11-24T13:27:00.673Z,74.6
2022-11-24T13:28:00.652Z,74.6
2022-11-24T13:29:06.111Z,74.6
2022-11-24T13:30:01.692Z,74.6
2022-11-24T13:31:00.743Z,74.6
2022-11-24T13:32:02.727Z,74.6
2022-11-24T13:33:00.671Z,74.6
2022-11-24T13:34:00.677Z,74.6
2022-11-24T13:35:02.699Z,74.6
2022-11-24T13:36:00.670Z,74.6
2022-11-24T13:37:31.192Z,74.6
2022-11-24T13:38:01.688Z,74.6
2022-11-24T13:39:00.676Z,74.6
2022-11-24T13:40:02.715Z,74.6
2022-11-24T13:41:21.219Z,74.6
2022-11-24T13:42:01.691Z,74.6
2022-11-24T13:43:00.684Z,74.6
2022-11-24T13:44:02.710Z,74.6
2022-11-24T13:45:00.665Z,74.6
2022-11-24T13:46:00.689Z,74.6
2022-11-24T13:47:05.731Z,74.6
2022-11-24T13:48:00.653Z,74.6
2022-11-24T13:49:00.681Z,74.6
2022-11-24T13:50:00.689Z,74.6
2022-11-24T13:51:00.656Z,74.6
2022-11-24T13:52:01.679Z,74.6
2022-11-24T13:53:00.680Z,74.6
2022-11-24T13:54:01.670Z,74.6
2022-11-24T13:55:00.688Z,74.6
2022-11-24T13:56:01.693Z,74.6
2022-11-24T13:57:00.746Z,74.6
2022-11-24T13:58:00.651Z,74.6
2022-11-24T13:59:01.694Z,74.6
2022-11-24T14:00:00.653Z,74.6
2022-11-24T14:01:02.692Z,74.6
2022-11-24T14:02:00.733Z,74.6
2022-11-24T14:03:01.773Z,74.6
2022-11-24T14:04:29.253Z,74.6
2022-11-24T14:05:00.676Z,74.6
2022-11-24T14:06:02.685Z,74.6
2022-11-24T14:07:07.377Z,74.6
2022-11-24T14:08:00.765Z,74.6
2022-11-24T14:09:00.703Z,74.6
2022-11-24T14:10:01.692Z,74.6
2022-11-24T14:11:00.679Z,74.6
2022-11-24T14:12:00.718Z,74.6
2022-11-24T14:13:00.691Z,74.6
2022-11-24T14:14:00.686Z,74.6
2022-11-24T14:15:02.689Z,74.6
2022-11-24T14:16:00.803Z,74.6
2022-11-24T14:17:01.725Z,74.6
2022-11-24T14:18:00.676Z,74.6
2022-11-24T14:19:00.695Z,74.6
2022-11-24T14:20:02.708Z,74.6
2022-11-24T14:21:00.684Z,73.6
2022-11-24T14:22:00.696Z,73.6
2022-11-24T14:23:01.706Z,73.7
2022-11-24T14:24:00.684Z,73.7
2022-11-24T14:25:00.712Z,73.7
2022-11-24T14:26:00.725Z,73.7
2022-11-24T14:27:02.722Z,73.7
2022-11-24T14:28:00.895Z,73.7
2022-11-24T14:29:01.714Z,73.7
2022-11-24T14:30:00.716Z,73.7
2022-11-24T14:31:01.722Z,73.7
2022-11-24T14:32:00.729Z,73.7
2022-11-24T14:33:01.720Z,73.7
2022-11-24T14:34:00.701Z,73.7
2022-11-24T14:35:00.736Z,73.7
2022-11-24T14:36:00.837Z,73.7
2022-11-24T14:37:03.727Z,73.7
2022-11-24T14:38:01.704Z,73.7
2022-11-24T14:39:00.751Z,73.7
2022-11-24T14:40:00.744Z,73.7
2022-11-24T14:41:00.717Z,73.7
2022-11-24T14:42:00.721Z,73.7
2022-11-24T14:43:00.711Z,73.7
2022-11-24T14:44:00.706Z,73.7
2022-11-24T14:45:00.787Z,74.8
2022-11-24T14:46:02.754Z,74.8
2022-11-24T14:47:00.828Z,74.8
2022-11-24T14:48:02.763Z,74.8
2022-11-24T14:49:03.762Z,74.8
2022-11-24T14:50:00.818Z,74.8
2022-11-24T14:51:00.775Z,74.8
2022-11-24T14:52:00.742Z,74.8
2022-11-24T14:53:00.775Z,74.8
2022-11-24T14:54:00.771Z,74.8
2022-11-24T14:55:21.512Z,74.8
2022-11-24T14:56:00.786Z,74.8
2022-11-24T14:57:00.786Z,74.8
2022-11-24T14:58:00.742Z,74.8
2022-11-24T14:59:02.779Z,74.8
2022-11-24T15:00:00.808Z,74.8
2022-11-24T15:01:00.819Z,74.8
2022-11-24T15:02:00.795Z,74.8
2022-11-24T15:03:00.764Z,74.8
2022-11-24T15:04:02.629Z,76.5
2022-11-24T15:05:03.642Z,76.5
2022-11-24T15:06:02.794Z,76.5
2022-11-24T15:07:01.037Z,76.5
2022-11-24T15:08:00.833Z,76.5
2022-11-24T15:09:00.757Z,76.5
2022-11-24T15:10:02.794Z,76.5
2022-11-24T15:11:00.764Z,76.5
2022-11-24T15:12:00.802Z,76.5
2022-11-24T15:13:00.747Z,76.5
2022-11-24T15:14:00.753Z,76.9
2022-11-24T15:15:00.778Z,76.9
2022-11-24T15:16:02.878Z,76.9
2022-11-24T15:17:00.795Z,76.9
2022-11-24T15:18:00.776Z,76.9
2022-11-24T15:19:00.774Z,76.9
2022-11-24T15:20:01.787Z,76.9
2022-11-24T15:21:00.797Z,76.9
2022-11-24T15:22:00.791Z,76.9
2022-11-24T15:23:00.798Z,76.9
2022-11-24T15:24:01.815Z,76.9
2022-11-24T15:25:00.760Z,76.9
2022-11-24T15:26:00.785Z,76.9
2022-11-24T15:28:00.773Z,76.9
2022-11-24T15:29:01.791Z,76.9
2022-11-24T15:30:00.762Z,77.7
2022-11-24T15:31:03.824Z,77.7
2022-11-24T15:32:02.864Z,77.7
2022-11-24T15:33:01.771Z,77.7
2022-11-24T15:34:00.790Z,77.7
2022-11-24T15:35:01.836Z,77.7
2022-11-24T15:36:01.766Z,77.7
2022-11-24T15:37:00.757Z,77.7
2022-11-24T15:38:00.787Z,77.7
2022-11-24T15:39:00.760Z,77.7
2022-11-24T15:40:01.768Z,77.7
2022-11-24T15:41:00.786Z,77.7
2022-11-24T15:42:00.763Z,77.7
2022-11-24T15:43:06.352Z,77.7
2022-11-24T15:44:00.779Z,77.7
2022-11-24T15:45:00.756Z,77.7
2022-11-24T15:46:00.763Z,77.7
2022-11-24T15:47:01.852Z,77.7
2022-11-24T15:48:00.762Z,77.7
2022-11-24T15:49:00.799Z,77.7
2022-11-24T15:50:01.823Z,77.7
2022-11-24T15:51:00.791Z,77.7
2022-11-24T15:52:00.777Z,77.7
2022-11-24T15:53:01.827Z,77.7
2022-11-24T15:54:02.789Z,77.7
2022-11-24T15:55:01.148Z,77.7
2022-11-24T15:56:01.817Z,77.7
2022-11-24T15:57:00.765Z,77.7
2022-11-24T15:58:01.787Z,77.7
2022-11-24T15:59:02.644Z,78.1
2022-11-24T16:00:00.769Z,78.1
2022-11-24T16:01:02.872Z,78.1
2022-11-24T16:02:00.867Z,78.1
2022-11-24T16:03:59.008Z,78.1
2022-11-24T16:05:00.864Z,78.1
2022-11-24T16:05:58.843Z,78.1
2022-11-24T16:06:58.859Z,78.1
2022-11-24T16:07:58.947Z,78.1
2022-11-24T16:08:58.828Z,78.1
2022-11-24T16:09:58.832Z,78.1
2022-11-24T16:11:01.833Z,78.3
2022-11-24T16:11:58.822Z,78.3
2022-11-24T16:12:59.848Z,78.3
2022-11-24T16:13:58.861Z,78.3
2022-11-24T16:15:00.872Z,78.3
2022-11-24T16:15:58.910Z,78.3
2022-11-24T16:17:00.843Z,78.3
2022-11-24T16:17:58.881Z,78.3
2022-11-24T16:19:00.919Z,78.3
2022-11-24T16:20:00.809Z,78.3
2022-11-24T16:21:01.863Z,78.3
2022-11-24T16:21:59.820Z,78.3
2022-11-24T16:22:58.830Z,78.3
2022-11-24T16:24:00.867Z,78.3
2022-11-24T16:25:00.876Z,78.3
2022-11-24T16:25:59.824Z,78.3
2022-11-24T16:26:58.856Z,78.3
2022-11-24T16:28:01.834Z,78.3
2022-11-24T16:29:00.831Z,78.3
2022-11-24T16:29:58.847Z,78.3
2022-11-24T16:31:00.841Z,78.3
2022-11-24T16:31:59.908Z,78.3
2022-11-24T16:32:58.837Z,78.3
2022-11-24T16:34:00.837Z,78.3
2022-11-24T16:34:59.817Z,78.3
2022-11-24T16:35:58.867Z,78.3
2022-11-24T16:36:59.817Z,78.3
2022-11-24T16:37:58.945Z,78.3
2022-11-24T16:38:58.878Z,78.3
2022-11-24T16:39:58.814Z,78.3
2022-11-24T16:41:00.866Z,78.3
2022-11-24T16:41:58.844Z,78.3
2022-11-24T16:42:59.827Z,78.3
2022-11-24T16:43:58.819Z,78.3
2022-11-24T16:45:00.856Z,78.3
2022-11-24T16:45:58.892Z,79.3
2022-11-24T16:46:59.869Z,79.3
2022-11-24T16:47:58.858Z,79.3
2022-11-24T16:49:01.869Z,79.3
2022-11-24T16:49:59.848Z,79.3
2022-11-24T16:50:58.872Z,79.3
2022-11-24T16:51:58.843Z,79.3
2022-11-24T16:53:01.885Z,79.3
2022-11-24T16:53:58.882Z,79.3
2022-11-24T16:55:01.869Z,79.3
2022-11-24T16:56:00.903Z,79.3
2022-11-24T16:56:58.858Z,79.3
2022-11-24T16:58:01.868Z,79.3
2022-11-24T16:58:59.872Z,79.3
2022-11-24T16:59:58.880Z,79.3
2022-11-24T17:00:59.885Z,79.3
2022-11-24T17:01:58.951Z,79.3
2022-11-24T17:02:59.870Z,79.3
2022-11-24T17:03:59.847Z,79.3
2022-11-24T17:04:58.892Z,79.3
2022-11-24T17:05:59.902Z,79.3
2022-11-24T17:07:00.871Z,79.8
2022-11-24T17:07:58.934Z,79.8
2022-11-24T17:08:58.861Z,79.8
2022-11-24T17:09:58.864Z,79.8
2022-11-24T17:11:01.915Z,79.8
2022-11-24T17:12:01.120Z,79.8
2022-11-24T17:12:58.862Z,79.8
2022-11-24T17:13:59.868Z,80.2
2022-11-24T17:15:30.433Z,80.2
2022-11-24T17:16:00.093Z,80.2
2022-11-24T17:16:58.900Z,80.2
2022-11-24T17:18:23.583Z,80.2
2022-11-24T17:19:00.920Z,80.2
2022-11-24T17:19:58.908Z,80.2
2022-11-24T17:21:05.949Z,80.2
2022-11-24T17:21:58.872Z,80.2
2022-11-24T17:22:58.872Z,80.2
2022-11-24T17:23:58.900Z,80.2
2022-11-24T17:24:58.866Z,80.2
2022-11-24T17:25:58.872Z,80.2
2022-11-24T17:26:58.900Z,80.2
2022-11-24T17:27:58.885Z,80.2
2022-11-24T17:28:58.911Z,80.2
2022-11-24T17:30:02.923Z,80.2
2022-11-24T17:30:58.925Z,80.2
2022-11-24T17:31:58.948Z,80.2
2022-11-24T17:32:58.876Z,80.2
2022-11-24T17:33:58.923Z,80.2
2022-11-24T17:34:58.933Z,80.2
2022-11-24T17:35:58.934Z,80.2
2022-11-24T17:36:58.890Z,80.2
2022-11-24T17:37:58.914Z,80.2
2022-11-24T17:38:58.923Z,80.2
2022-11-24T17:40:20.668Z,80.2
2022-11-24T17:40:58.953Z,80.2
2022-11-24T17:41:58.903Z,80.2
2022-11-24T17:42:58.903Z,80.2
2022-11-24T17:43:58.943Z,80.2
2022-11-24T17:44:58.914Z,80.2
2022-11-24T17:45:58.952Z,80.2
2022-11-24T17:46:58.929Z,80.2
2022-11-24T17:47:58.927Z,80.2
2022-11-24T17:50:01.038Z,80.2
2022-11-24T17:51:02.882Z,80.2
2022-11-24T17:52:00.876Z,80.2
2022-11-24T17:53:00.906Z,80.2
2022-11-24T17:54:18.677Z,80.2
2022-11-24T17:55:03.080Z,80.2
2022-11-24T17:56:01.882Z,80.2
2022-11-24T17:57:00.860Z,80.2
2022-11-24T17:58:00.897Z,80.2
2022-11-24T17:59:00.881Z,82
2022-11-24T18:00:00.856Z,82
2022-11-24T18:01:01.954Z,82
2022-11-24T18:02:00.897Z,82
2022-11-24T18:03:01.895Z,82
2022-11-24T18:04:00.923Z,82
2022-11-24T18:05:01.891Z,82
2022-11-24T18:06:01.262Z,82
2022-11-24T18:07:01.883Z,82
2022-11-24T18:08:00.846Z,82.2
2022-11-24T18:09:01.866Z,82.2
2022-11-24T18:10:00.898Z,82.2
2022-11-24T18:11:00.920Z,82.2
2022-11-24T18:12:00.867Z,82.2
2022-11-24T18:13:01.884Z,82.2
2022-11-24T18:14:01.659Z,82.2
2022-11-24T18:15:00.911Z,82.2
2022-11-24T18:16:00.871Z,82.2
2022-11-24T18:17:00.928Z,82.2
2022-11-24T18:18:00.888Z,82.2
2022-11-24T18:19:08.440Z,82.2
2022-11-24T18:20:00.873Z,82.2
2022-11-24T18:21:00.926Z,82.2
2022-11-24T18:22:00.875Z,82.2
2022-11-24T18:23:05.820Z,82.2
2022-11-24T18:24:00.878Z,82.2
2022-11-24T18:25:00.921Z,82.2
2022-11-24T18:26:00.876Z,82.2
2022-11-24T18:27:00.898Z,82.2
2022-11-24T18:28:00.908Z,82.2
2022-11-24T18:29:00.862Z,82.2
2022-11-24T18:30:00.951Z,82.2
2022-11-24T18:31:00.898Z,82.2
2022-11-24T18:32:00.899Z,82.2
2022-11-24T18:33:00.935Z,82.2
2022-11-24T18:34:00.900Z,82.2
2022-11-24T18:35:02.925Z,82.2
2022-11-24T18:36:00.887Z,82.2
2022-11-24T18:37:00.871Z,82.2
2022-11-24T18:38:00.895Z,82.2
2022-11-24T18:39:03.913Z,82.2
2022-11-24T18:40:00.900Z,82.2
2022-11-24T18:41:00.937Z,82.2
2022-11-24T18:42:00.886Z,82.2
2022-11-24T18:43:01.920Z,82.2
2022-11-24T18:44:00.938Z,82.2
2022-11-24T18:45:00.953Z,82.2
2022-11-24T18:46:03.441Z,82.2
2022-11-24T18:47:00.914Z,82.2
2022-11-24T18:48:01.915Z,82.2
2022-11-24T18:49:01.922Z,82.2
2022-11-24T18:50:00.906Z,82.2
2022-11-24T18:51:00.970Z,82.2
2022-11-24T18:52:00.895Z,82.2
2022-11-24T18:53:00.937Z,83.8
2022-11-24T18:54:00.921Z,83.8
2022-11-24T18:55:00.897Z,83.8
2022-11-24T18:56:02.957Z,83.8
2022-11-24T18:57:03.475Z,83.8
2022-11-24T18:58:01.901Z,83.8
2022-11-24T18:59:04.010Z,83.8
2022-11-24T19:00:01.904Z,83.8
2022-11-24T19:01:01.021Z,83.8
2022-11-24T19:02:02.021Z,83.8
2022-11-24T19:03:00.905Z,83.8
2022-11-24T19:04:01.950Z,83.8
2022-11-24T19:05:01.952Z,83.8
2022-11-24T19:06:01.038Z,83.8
2022-11-24T19:07:02.940Z,83.8
2022-11-24T19:08:01.933Z,83.8
2022-11-24T19:09:00.939Z,83.8
2022-11-24T19:10:01.954Z,84.2
2022-11-24T19:11:01.928Z,84.2
2022-11-24T19:12:00.979Z,84.2
2022-11-24T19:13:01.941Z,84.2
2022-11-24T19:14:00.936Z,84.2
2022-11-24T19:15:01.950Z,84.2
2022-11-24T19:16:03.435Z,84.2
2022-11-24T19:17:00.971Z,84.2
2022-11-24T19:18:00.983Z,84.2
2022-11-24T19:19:00.920Z,84.2
2022-11-24T19:20:01.949Z,84.2
2022-11-24T19:21:00.926Z,84.2
2022-11-24T19:22:00.929Z,84.2
2022-11-24T19:23:00.916Z,84.2
2022-11-24T19:24:05.306Z,84.2
2022-11-24T19:25:00.952Z,84.2
2022-11-24T19:26:00.915Z,84.2
2022-11-24T19:27:00.979Z,84.2
2022-11-24T19:28:00.934Z,84.2
2022-11-24T19:29:02.950Z,84.2
2022-11-24T19:30:00.961Z,84.2
2022-11-24T19:31:01.938Z,84.2
2022-11-24T19:32:01.056Z,84.2
2022-11-24T19:33:02.958Z,84.2
2022-11-24T19:34:00.959Z,84.2
2022-11-24T19:35:00.983Z,84.2
2022-11-24T19:36:00.955Z,84.2
2022-11-24T19:37:00.937Z,84.2
2022-11-24T19:38:01.947Z,84.2
2022-11-24T19:39:00.936Z,84.2
2022-11-24T19:40:00.943Z,84.2
2022-11-24T19:41:02.997Z,84.2
2022-11-24T19:42:00.932Z,84.2
2022-11-24T19:43:00.980Z,84.2
2022-11-24T19:44:01.027Z,84.2
2022-11-24T19:45:00.984Z,84.2
2022-11-24T19:46:01.069Z,85
2022-11-24T19:47:00.950Z,85
2022-11-24T19:48:00.952Z,85
2022-11-24T19:49:01.984Z,85
2022-11-24T19:50:02.859Z,85
2022-11-24T19:51:03.011Z,85
2022-11-24T19:52:00.964Z,85.4
2022-11-24T19:53:00.969Z,85.4
2022-11-24T19:54:00.982Z,85.4
2022-11-24T19:55:01.004Z,85.4
2022-11-24T19:56:01.030Z,85.4
2022-11-24T19:57:00.988Z,85.4
2022-11-24T19:58:00.973Z,85.4
2022-11-24T19:59:01.004Z,85.4
2022-11-24T20:00:01.961Z,85.4
2022-11-24T20:01:01.046Z,85.4
2022-11-24T20:02:01.185Z,85.4
2022-11-24T20:03:01.064Z,85.4
2022-11-24T20:04:01.005Z,85.4
2022-11-24T20:05:01.012Z,85.4
2022-11-24T20:06:01.005Z,85.4
2022-11-24T20:07:00.980Z,85.4
2022-11-24T20:08:00.986Z,85.4
2022-11-24T20:09:01.040Z,85.4
2022-11-24T20:10:07.336Z,85.4
2022-11-24T20:11:01.001Z,85.4
2022-11-24T20:12:00.991Z,85.4
2022-11-24T20:13:00.985Z,85.4
2022-11-24T20:14:00.986Z,85.4
2022-11-24T20:15:01.042Z,85.4
2022-11-24T20:16:01.211Z,85.4
2022-11-24T20:17:02.063Z,85.4
2022-11-24T20:18:02.010Z,85.4
2022-11-24T20:19:01.006Z,85.4
2022-11-24T20:20:03.088Z,85.4
2022-11-24T20:21:00.996Z,85.4
2022-11-24T20:22:02.044Z,85.4
2022-11-24T20:23:02.054Z,85.4
2022-11-24T20:24:02.005Z,85.4
2022-11-24T20:25:01.025Z,85.4
2022-11-24T20:26:01.034Z,85.4
2022-11-24T20:27:01.026Z,85.4
2022-11-24T20:28:01.024Z,85.4
2022-11-24T20:29:01.064Z,85.4
2022-11-24T20:30:02.105Z,85.4
2022-11-24T20:31:01.018Z,85.4
2022-11-24T20:32:01.212Z,85.4
2022-11-24T20:33:01.026Z,85.9
2022-11-24T20:34:00.994Z,85.9
2022-11-24T20:35:03.093Z,85.9
2022-11-24T20:36:01.033Z,85.9
2022-11-24T20:37:00.991Z,85.9
2022-11-24T20:38:01.008Z,85.9
2022-11-24T20:39:00.984Z,85.9
2022-11-24T20:40:01.011Z,85.9
2022-11-24T20:41:04.672Z,85.9
2022-11-24T20:42:01.023Z,85.9
2022-11-24T20:43:01.035Z,85.9
2022-11-24T20:44:01.008Z,85.9
2022-11-24T20:45:02.058Z,86
2022-11-24T20:46:01.133Z,86
2022-11-24T20:47:01.062Z,86
2022-11-24T20:48:01.074Z,86
2022-11-24T20:49:01.033Z,86
2022-11-24T20:50:04.063Z,86
2022-11-24T20:51:01.073Z,86
2022-11-24T20:52:08.074Z,86
2022-11-24T20:53:03.144Z,86
2022-11-24T20:54:04.046Z,86
2022-11-24T20:55:02.053Z,86
2022-11-24T20:56:05.635Z,86
2022-11-24T20:57:03.046Z,86.2
2022-11-24T20:58:02.057Z,86.2
2022-11-24T20:59:01.048Z,86.2
2022-11-24T21:00:02.032Z,86.2
2022-11-24T21:01:01.116Z,86.2
2022-11-24T21:02:01.136Z,86.2
2022-11-24T21:03:03.061Z,86.2
2022-11-24T21:04:01.086Z,86.2
2022-11-24T21:05:04.041Z,86.2
2022-11-24T21:06:01.080Z,86.2
2022-11-24T21:07:01.029Z,86.2
2022-11-24T21:08:01.042Z,86.2
2022-11-24T21:09:03.924Z,86.2
2022-11-24T21:10:02.025Z,86.2
2022-11-24T21:11:01.055Z,86.2
2022-11-24T21:12:01.027Z,86.2
2022-11-24T21:13:01.035Z,86.2
2022-11-24T21:14:01.073Z,86.2
2022-11-24T21:15:01.043Z,86.2
2022-11-24T21:16:01.092Z,86.2
2022-11-24T21:17:01.130Z,86.2
2022-11-24T21:18:01.026Z,86.2
2022-11-24T21:19:01.087Z,86.2
2022-11-24T21:20:01.388Z,86.3
2022-11-24T21:21:01.056Z,86.3
2022-11-24T21:22:01.041Z,86.3
2022-11-24T21:23:03.072Z,86.3
2022-11-24T21:24:01.061Z,86.3
2022-11-24T21:25:01.072Z,86.3
2022-11-24T21:26:05.181Z,86.3
2022-11-24T21:27:01.059Z,86.3
2022-11-24T21:28:01.047Z,86.3
2022-11-24T21:29:01.094Z,86.3
2022-11-24T21:30:01.064Z,86.3
2022-11-24T21:31:01.053Z,86.3
2022-11-24T21:32:02.185Z,86.3
2022-11-24T21:33:01.057Z,86.3
2022-11-24T21:34:01.064Z,86.3
2022-11-24T21:35:02.140Z,86.3
2022-11-24T21:36:01.138Z,86.3
2022-11-24T21:37:01.133Z,86.3
2022-11-24T21:38:01.058Z,86.3
2022-11-24T21:39:01.096Z,86.3
2022-11-24T21:40:01.069Z,86.3
2022-11-24T21:41:01.079Z,86.3
2022-11-24T21:42:01.069Z,86.3
2022-11-24T21:43:01.063Z,86.3
2022-11-24T21:44:02.059Z,86.3
2022-11-24T21:45:01.109Z,86.3
2022-11-24T21:46:02.113Z,86.3
2022-11-24T21:47:01.085Z,86.3
2022-11-24T21:48:01.061Z,86.3
2022-11-24T21:49:02.055Z,86.3
2022-11-24T21:50:01.076Z,86.3
2022-11-24T21:51:01.079Z,86.3
2022-11-24T21:52:01.089Z,86.3
2022-11-24T21:53:03.562Z,86.3
2022-11-24T21:54:01.070Z,86.3
2022-11-24T21:55:01.090Z,86.3
2022-11-24T21:56:01.116Z,86.3
2022-11-24T21:57:01.091Z,86.3
2022-11-24T21:58:01.085Z,86.3
2022-11-24T21:59:01.069Z,86.3
2022-11-24T22:00:01.085Z,86.3
2022-11-24T22:01:01.102Z,86.3
2022-11-24T22:02:01.120Z,86.3
2022-11-24T22:03:01.089Z,86.3
2022-11-24T22:04:02.062Z,86.3
2022-11-24T22:05:01.083Z,86.3
2022-11-24T22:06:01.060Z,86.3
2022-11-24T22:07:01.080Z,86.3
2022-11-24T22:08:01.076Z,86.3
2022-11-24T22:09:01.057Z,86.3
2022-11-24T22:10:01.087Z,86.3
2022-11-24T22:11:01.119Z,86.3
2022-11-24T22:12:35.976Z,85.4
2022-11-24T22:13:28.616Z,85.4
2022-11-24T22:14:40.667Z,85.4
2022-11-24T22:15:28.618Z,85.4
2022-11-24T22:16:28.681Z,85.4
2022-11-24T22:17:35.776Z,85.4
2022-11-24T22:18:28.603Z,85.4
2022-11-24T22:19:28.609Z,85.4
2022-11-24T22:20:28.637Z,85.4
2022-11-24T22:21:28.761Z,85.4
2022-11-24T22:22:28.623Z,85.4
2022-11-24T22:23:28.592Z,85.4
2022-11-24T22:24:31.626Z,85.4
2022-11-24T22:25:28.636Z,85.4
2022-11-24T22:26:33.647Z,85.4
2022-11-24T22:27:28.674Z,85.4
2022-11-24T22:28:28.630Z,85.4
2022-11-24T22:29:28.607Z,85.4
2022-11-24T22:30:28.623Z,85.4
2022-11-24T22:31:28.719Z,85.4
2022-11-24T22:32:28.625Z,85.4
2022-11-24T22:33:28.665Z,85.4
2022-11-24T22:34:28.673Z,84.9
2022-11-24T22:35:28.630Z,84.9
2022-11-24T22:36:28.669Z,84.9
2022-11-24T22:37:28.613Z,84.9
2022-11-24T22:38:28.628Z,84.9
2022-11-24T22:39:28.658Z,84.9
2022-11-24T22:40:28.628Z,85
2022-11-24T22:41:28.611Z,85
2022-11-24T22:42:28.633Z,85
2022-11-24T22:43:28.631Z,85
2022-11-24T22:44:28.659Z,85
2022-11-24T22:45:28.689Z,85
2022-11-24T22:46:28.642Z,85
2022-11-24T22:47:28.629Z,85
2022-11-24T22:48:33.693Z,85
2022-11-24T22:49:28.642Z,85
2022-11-24T22:50:28.638Z,85
2022-11-24T22:51:28.689Z,85
2022-11-24T22:52:28.658Z,85
2022-11-24T22:53:28.657Z,85
2022-11-24T22:54:28.647Z,85
2022-11-24T22:55:28.692Z,85
2022-11-24T22:56:28.666Z,85
2022-11-24T22:57:28.653Z,85
2022-11-24T22:58:28.651Z,85
2022-11-24T22:59:35.844Z,85
2022-11-24T23:00:28.683Z,85
2022-11-24T23:01:28.671Z,84.6
2022-11-24T23:02:28.713Z,84.6
2022-11-24T23:03:28.881Z,84.6
2022-11-24T23:04:28.704Z,84.6
2022-11-24T23:05:28.641Z,84.6
2022-11-24T23:06:28.668Z,84.6
2022-11-24T23:07:28.736Z,84.6
2022-11-24T23:08:28.654Z,84.6
2022-11-24T23:09:28.670Z,84.6
2022-11-24T23:10:28.693Z,84.6
2022-11-24T23:11:33.843Z,84.6
2022-11-24T23:12:33.730Z,84.6
2022-11-24T23:13:28.686Z,84.6
2022-11-24T23:14:29.727Z,84.6
2022-11-24T23:15:33.291Z,84.6
2022-11-24T23:16:28.684Z,84.6
2022-11-24T23:17:33.728Z,84.6
2022-11-24T23:18:28.664Z,84.6
2022-11-24T23:19:28.670Z,84.6
2022-11-24T23:20:28.701Z,84.6
2022-11-24T23:21:28.686Z,84.6
2022-11-24T23:22:28.683Z,84.6
2022-11-24T23:23:28.673Z,84.6
2022-11-24T23:24:28.675Z,84.6
2022-11-24T23:26:28.676Z,84.6
2022-11-24T23:27:28.685Z,84.6
2022-11-24T23:28:29.695Z,84.6
2022-11-24T23:29:33.704Z,84.6
2022-11-24T23:30:28.691Z,84.4
2022-11-24T23:31:33.766Z,84.4
2022-11-24T23:32:28.697Z,84.4
2022-11-24T23:33:28.719Z,84.4
2022-11-24T23:34:28.730Z,84.4
2022-11-24T23:35:28.699Z,84.4
2022-11-24T23:36:28.688Z,84.4
2022-11-24T23:37:52.224Z,84.4
2022-11-24T23:38:28.710Z,84.4
2022-11-24T23:39:28.709Z,84.4
2022-11-24T23:40:28.743Z,84.4
2022-11-24T23:41:28.689Z,84.4
2022-11-24T23:42:28.719Z,84.4
2022-11-24T23:43:28.707Z,84.4
2022-11-24T23:44:28.695Z,84.4
2022-11-24T23:45:28.903Z,84.4
2022-11-24T23:46:28.725Z,84.4
2022-11-24T23:47:28.701Z,84.4
2022-11-24T23:48:28.711Z,84.4
2022-11-24T23:49:28.702Z,84.4
2022-11-24T23:50:28.710Z,84.4
2022-11-24T23:51:28.698Z,84.4
2022-11-24T23:52:28.708Z,84.4
2022-11-24T23:53:28.705Z,84.4
2022-11-24T23:54:28.743Z,84.4
2022-11-24T23:55:28.709Z,84.4
2022-11-24T23:56:28.705Z,83.7
2022-11-24T23:57:28.707Z,83.7
2022-11-24T23:58:28.703Z,83.7
2022-11-24T23:59:28.715Z,83.7
